Nearby METAR Reports

 

KSEE - San Diego/Santee, California, USA
Distance from station: E 4mi, 6km
Updated: Sun, 25-Jun-2017 6:47am PDT
Clear
Clear
 Wind from calm
Wind: Calm
Temperature: 63°F , 17°C
Dew Point: 59°F , 15°C
Humidity: 88%
Barometer: 29.89 inHg , 1012.2 hPa
Clouds: Clear
Visibility: 10 miles , 16 km
2017/06/25 13:47 KSEE 251347Z 00000KT 10SM SKC 17/15 A2989
KMYF - San Diego/Mntgmy, California, USA
Distance from station: W 6mi, 10km
Updated: Sun, 25-Jun-2017 5:53am PDT
Mist, Overcast
Mist, Overcast
 Wind from N
Wind: N 6 mph , 9 km/h
Temperature: 63°F , 17°C
Dew Point: 61°F , 16°C
Humidity: 94%
Barometer: 29.88 inHg , 1011.9 hPa
Summary: Mist
Clouds: Overcast
Visibility: 5 miles , 8 km
Cloud details: Overcast 400 ft
2017/06/25 12:53 KMYF 251253Z 01005KT 5SM BR OVC004 17/16 A2988 RMK AO2 SLP114 T01720156
 
KNKX - Miramar Nas/San, California, USA
Distance from station: WNW 7mi, 11km
Updated: Sun, 25-Jun-2017 5:55am PDT
Mist, Overcast
Mist, Overcast
 Wind from N
Wind: N 5 mph , 7 km/h
Temperature: 64°F , 18°C
Dew Point: 61°F , 16°C
Humidity: 88%
Barometer: 29.88 inHg , 1011.9 hPa
Summary: Mist
Clouds: Overcast
Visibility: 5 miles , 8 km
Cloud details: Overcast 300 ft
2017/06/25 12:55 KNKX 251255Z 35004KT 5SM BR OVC003 18/16 A2988 RMK AO2 SLP111 T01780156 $
KSAN - San Diego, California, USA
Distance from station: WSW 11mi, 17km
Updated: Sun, 25-Jun-2017 5:51am PDT
Overcast
Overcast
 Wind from NW
Wind: NW 6 mph , 9 km/h
Temperature: 64°F , 18°C
Dew Point: 63°F , 17°C
Humidity: 94%
Barometer: 29.89 inHg , 1012.2 hPa
Clouds: Overcast
Visibility: 10 miles , 16 km
Cloud details: Overcast 700 ft
2017/06/25 12:51 KSAN 251251Z 32005KT 10SM OVC007 18/17 A2989 RMK AO2 SLP120 T01830167
 
KNZY - North Island Nas, California, USA
Distance from station: SW 13mi, 22km
Updated: Sun, 25-Jun-2017 5:52am PDT
Overcast
Overcast
 Wind from NNW
Wind: NNW 8 mph , 13 km/h
Temperature: 64°F , 18°C
Dew Point: 61°F , 16°C
Humidity: 88%
Barometer: 29.87 inHg , 1011.5 hPa
Clouds: Overcast
Visibility: 10 miles , 16 km
Cloud details: Overcast 600 ft
2017/06/25 12:52 KNZY 251252Z AUTO 34007KT 10SM OVC006 18/16 A2987 RMK AO2 SLP114 T01780156 $
KRNM - Ramona, California, USA
Distance from station: NNE 16mi, 26km
Updated: Sun, 25-Jun-2017 5:53am PDT
Clear
Clear
 Wind from calm
Wind: Calm
Temperature: 61°F , 16°C
Dew Point: 57°F , 14°C
Humidity: 88%
Barometer: 29.90 inHg , 1012.5 hPa
Clouds: Clear
Visibility: 10 miles , 16 km
2017/06/25 12:53 KRNM 251253Z AUTO 00000KT 10SM CLR 16/14 A2990 RMK AO2 SLP109 T01610144
 
KSDM - San Diego/Brown, California, USA
Distance from station: S 16mi, 26km
Updated: Sun, 25-Jun-2017 5:53am PDT
Clear
Clear
 Wind from calm
Wind: Calm
Temperature: 63°F , 17°C
Dew Point: 59°F , 15°C
Humidity: 88%
Barometer: 29.87 inHg , 1011.5 hPa
Clouds: Clear
Visibility: 7 miles , 11 km
2017/06/25 12:53 KSDM 251253Z AUTO 00000KT 7SM CLR 17/15 A2987 RMK AO2 SLP112 T01670150
KNRS - Imperial Beach, California, USA
Distance from station: SSW 18mi, 29km
Updated: Sun, 25-Jun-2017 5:56am PDT
Overcast
Overcast
 Wind from NW
Wind: NW 7 mph , 11 km/h
Temperature: 64°F , 18°C
Dew Point: 61°F , 16°C
Humidity: 88%
Barometer: 29.88 inHg , 1011.9 hPa
Clouds: Overcast
Visibility: 10 miles , 16 km
Cloud details: Overcast 800 ft
2017/06/25 12:56 KNRS 251256Z AUTO 32006KT 10SM OVC008 18/16 A2988 RMK AO2 SLP117 T01780156 $
 
MMTJ - Tijuana Intl Arp, Mexico
Distance from station: S 20mi, 32km
Updated: Sun, 25-Jun-2017 5:43am PDT
Mist, Clear
Mist, Clear
 Wind from calm
Wind: Calm
Temperature: 61°F , 16°C
Dew Point: 59°F , 15°C
Humidity: 94%
Barometer: 29.90 inHg , 1012.5 hPa
Summary: Mist
Clouds: Clear
Visibility: 3 miles , 5 km
2017/06/25 12:43 MMTJ 251243Z 00000KT 3SM BR SKC 16/15 A2990
KCRQ - Carlsbad, California, USA
Distance from station: NW 26mi, 43km
Updated: Sun, 25-Jun-2017 6:41am PDT
Mist, Overcast
Mist, Overcast
 Wind from NNW
Wind: NNW 3 mph , 6 km/h
Temperature: 63°F , 17°C
Dew Point: 63°F , 17°C
Humidity: 100%
Barometer: 29.88 inHg , 1011.9 hPa
Summary: Mist
Clouds: Overcast
Visibility: 6 miles , 10 km
Cloud details: Overcast 400 ft
2017/06/25 13:41 KCRQ 251341Z AUTO 33003KT 6SM BR OVC004 17/17 A2988 RMK AO2 T01720167
 
KOKB - Oceanside, California, USA
Distance from station: NW 33mi, 54km
Updated: Sun, 25-Jun-2017 6:38am PDT
Mist, Overcast
Mist, Overcast
 Wind from calm
Wind: Calm
Temperature: 63°F , 17°C
Dew Point: 63°F , 17°C
Humidity: 100%
Barometer: 29.89 inHg , 1012.2 hPa
Summary: Mist
Clouds: Overcast
Visibility: 4 miles , 6 km
Cloud details: Overcast 300 ft
2017/06/25 13:38 KOKB 251338Z AUTO 00000KT 4SM BR OVC003 17/17 A2989 RMK AO2 T01720167
KCZZ - Campo, California, USA
Distance from station: ESE 35mi, 56km
Updated: Sun, 25-Jun-2017 5:52am PDT

 Wind from NE
Wind: NE 6 mph , 9 km/h
Temperature: 61°F , 16°C
Dew Point: 48°F , 9°C
Humidity: 63%
Barometer: 29.94 inHg , 1013.9 hPa
2017/06/25 12:52 KCZZ 251252Z AUTO 05005KT 16/09 A2994 RMK AO1 SLP104 T01610089
 
KNFG - Camp Pendleton, California, USA
Distance from station: NNW 37mi, 59km
Updated: Sun, 25-Jun-2017 6:39am PDT
Mist, Overcast
Mist, Overcast
 Wind from calm
Wind: Calm
Temperature: 61°F , 16°C
Dew Point: 61°F , 16°C
Humidity: 100%
Barometer: 29.89 inHg , 1012.2 hPa
Summary: Mist
Clouds: Overcast
Visibility: 3/4 mile , 5 km
Cloud details: Overcast 300 ft
2017/06/25 13:39 KNFG 251339Z AUTO 00000KT 3/4SM BR OVC003 16/16 A2989 RMK AO2 T01560156
KRIV - Riverside/March, California, USA
Distance from station: N 74mi, 119km
Updated: Sun, 25-Jun-2017 5:58am PDT
Clear
Clear
 Wind from calm
Wind: Calm
Temperature: 63°F , 17°C
Dew Point: 59°F , 15°C
Humidity: 88%
Barometer: 29.91 inHg , 1012.9 hPa
Clouds: Clear
Visibility: 10 miles , 16 km
2017/06/25 12:58 KRIV 251258Z AUTO 00000KT 10SM CLR 17/15 A2991 RMK AO2 SLP115 T01740149
 
KTRM - Thermal/Palm Spg, California, USA
Distance from station: NE 75mi, 121km
Updated: Sun, 25-Jun-2017 5:52am PDT
Clear
Clear
 Wind from E
Wind: E 7 mph , 11 km/h
Temperature: 79°F , 26°C
Dew Point: 54°F , 12°C
Humidity: 42%
Barometer: 29.68 inHg , 1005.1 hPa
Clouds: Clear
Visibility: 10 miles , 16 km
2017/06/25 12:52 KTRM 251252Z AUTO 10006KT 10SM CLR 26/12 A2968 RMK AO2 SLP055 T02610122
KPSP - Palm Springs, California, USA
Distance from station: NNE 76mi, 122km
Updated: Sun, 25-Jun-2017 5:53am PDT
Clear
Clear
 Wind from varies
Wind: varies 5 mph , 7 km/h
Temperature: 84°F , 29°C
Heat Index: 83°F , 28°C
Dew Point: 57°F , 14°C
Humidity: 40%
Barometer: 29.75 inHg , 1007.5 hPa
Clouds: Clear
Visibility: 10 miles , 16 km
2017/06/25 12:53 KPSP 251253Z VRB04KT 10SM CLR 29/14 A2975 RMK AO2 SLP069 T02940144
 
KSNA - Costa Mesa, California, USA
Distance from station: NW 76mi, 123km
Updated: Sun, 25-Jun-2017 5:53am PDT
Mist, Mostly cloudy
Mist, Mostly cloudy
 Wind from SW
Wind: SW 3 mph , 6 km/h
Temperature: 63°F , 17°C
Dew Point: 61°F , 16°C
Humidity: 94%
Barometer: 29.89 inHg , 1012.2 hPa
Summary: Mist
Clouds: Mostly cloudy
Visibility: 5 miles , 8 km
Cloud details: Mostly cloudy 600 ft
Mostly cloudy 1200 ft
2017/06/25 12:53 KSNA 251253Z 22003KT 5SM BR BKN006 BKN012 17/16 A2989 RMK AO2 SLP118 T01720161
KNJK - El Centro Naf, California, USA
Distance from station: E 79mi, 127km
Updated: Sun, 25-Jun-2017 5:56am PDT
Clear
Clear
 Wind from calm
Wind: Calm
Temperature: 79°F , 26°C
Dew Point: 66°F , 19°C
Humidity: 65%
Barometer: 29.73 inHg , 1006.8 hPa
Clouds: Clear
Visibility: 10 miles , 16 km
2017/06/25 12:56 KNJK 251256Z AUTO 00000KT 10SM CLR 26/19 A2973 RMK AO2 SLP082 T02610194 $
 
KAJO - Corona Muni, California, USA
Distance from station: NNW 82mi, 132km
Updated: Sun, 25-Jun-2017 5:56am PDT
Clear
Clear
 Wind from calm
Wind: Calm
Temperature: 59°F , 15°C
Dew Point: 55°F , 13°C
Humidity: 88%
Barometer: 29.89 inHg , 1012.2 hPa
Clouds: Clear
Visibility: 10 miles , 16 km
2017/06/25 12:56 KAJO 251256Z AUTO 00000KT 10SM CLR 15/13 A2989 RMK AO2 SLP129 T01500133